createdAt,value
2019-05-10T00:00:13.642Z,75.87
2019-05-10T00:02:59.792Z,76.00
2019-05-10T00:05:47.884Z,76.17
2019-05-10T00:08:34.521Z,76.53
2019-05-10T00:11:07.210Z,76.66
2019-05-10T00:13:54.294Z,76.52
2019-05-10T00:16:22.995Z,76.74
2019-05-10T00:18:49.787Z,76.89
2019-05-10T00:21:16.793Z,77.45
2019-05-10T00:23:43.582Z,77.82
2019-05-10T00:26:11.042Z,78.19
2019-05-10T00:28:38.472Z,78.45
2019-05-10T00:31:05.382Z,78.54
2019-05-10T00:33:32.780Z,78.72
2019-05-10T00:35:59.623Z,78.50
2019-05-10T00:38:26.917Z,78.51
2019-05-10T00:40:54.015Z,78.51
2019-05-10T00:43:21.203Z,78.78
2019-05-10T00:45:48.153Z,78.82
2019-05-10T00:48:15.050Z,78.79
2019-05-10T00:50:41.841Z,78.78
2019-05-10T00:53:08.639Z,79.03
2019-05-10T00:55:35.523Z,79.07
2019-05-10T00:58:02.378Z,79.10
2019-05-10T01:00:30.499Z,79.17
2019-05-10T01:02:57.850Z,79.14
2019-05-10T01:05:24.619Z,79.09
2019-05-10T01:07:51.840Z,79.34
2019-05-10T01:10:18.740Z,79.39
2019-05-10T01:12:45.544Z,79.49
2019-05-10T01:15:13.146Z,79.59
2019-05-10T01:17:39.952Z,79.80
2019-05-10T01:20:07.940Z,80.03
2019-05-10T01:22:35.270Z,80.21
2019-05-10T01:25:05.313Z,80.82
2019-05-10T01:27:32.111Z,81.09
2019-05-10T01:29:59.076Z,81.10
2019-05-10T01:32:25.981Z,80.93
2019-05-10T01:34:52.849Z,80.74
2019-05-10T01:37:19.797Z,80.73
2019-05-10T01:39:46.519Z,80.82
2019-05-10T01:42:13.418Z,80.63
2019-05-10T01:44:40.259Z,80.41
2019-05-10T01:47:07.344Z,80.19
2019-05-10T01:49:34.293Z,80.42
2019-05-10T01:52:01.512Z,80.45
2019-05-10T01:54:31.125Z,80.39
2019-05-10T01:56:57.934Z,80.20
2019-05-10T01:59:24.801Z,80.06
2019-05-10T02:01:51.697Z,80.09
2019-05-10T02:04:18.704Z,80.09
2019-05-10T02:06:46.469Z,80.18
2019-05-10T02:09:13.318Z,80.22
2019-05-10T02:11:40.493Z,80.00
2019-05-10T02:14:07.991Z,79.99
2019-05-10T02:16:34.771Z,80.02
2019-05-10T02:19:01.940Z,79.88
2019-05-10T02:21:28.792Z,79.50
2019-05-10T02:23:55.974Z,78.79
2019-05-10T02:26:23.187Z,78.43
2019-05-10T02:28:50.351Z,78.08
2019-05-10T02:31:21.310Z,77.83
2019-05-10T02:33:46.329Z,78.00
2019-05-10T02:36:13.523Z,78.20
2019-05-10T02:38:40.339Z,78.27
2019-05-10T02:41:07.933Z,78.52
2019-05-10T02:43:35.920Z,79.16
2019-05-10T02:46:02.995Z,79.13
2019-05-10T02:48:30.280Z,79.05
2019-05-10T02:50:57.278Z,79.61
2019-05-10T02:53:24.193Z,79.82
2019-05-10T02:55:51.125Z,80.13
2019-05-10T02:58:18.442Z,80.41
2019-05-10T03:00:48.589Z,80.31
2019-05-10T03:03:16.752Z,80.50
2019-05-10T03:05:48.163Z,80.43
2019-05-10T03:08:13.722Z,80.60
2019-05-10T03:10:46.227Z,80.56
2019-05-10T03:13:16.038Z,80.49
2019-05-10T03:15:47.185Z,80.60
2019-05-10T03:18:14.586Z,80.77
2019-05-10T03:20:46.232Z,80.53
2019-05-10T03:23:14.614Z,80.63
2019-05-10T03:25:41.847Z,80.76
2019-05-10T03:28:08.871Z,81.02
2019-05-10T03:30:36.055Z,81.19
2019-05-10T03:33:03.206Z,81.16
2019-05-10T03:35:31.137Z,81.22
2019-05-10T03:37:58.284Z,81.19
2019-05-10T03:40:25.315Z,80.88
2019-05-10T03:42:52.753Z,81.00
2019-05-10T03:45:19.890Z,81.20
2019-05-10T03:47:46.764Z,81.39
2019-05-10T03:50:14.037Z,81.68
2019-05-10T03:52:40.870Z,81.67
2019-05-10T03:55:08.019Z,81.72
2019-05-10T03:57:34.851Z,81.48
2019-05-10T04:00:05.821Z,81.50
2019-05-10T04:02:32.702Z,81.87
2019-05-10T04:04:59.973Z,82.13
2019-05-10T04:07:26.903Z,82.19
2019-05-10T04:09:54.678Z,82.38
2019-05-10T04:12:21.800Z,82.11
2019-05-10T04:14:49.175Z,81.83
2019-05-10T04:17:15.949Z,82.08
2019-05-10T04:19:43.186Z,81.85
2019-05-10T04:22:10.073Z,81.64
2019-05-10T04:24:37.070Z,81.67
2019-05-10T04:27:04.387Z,81.75
2019-05-10T04:29:31.538Z,81.65
2019-05-10T04:31:58.554Z,82.22
2019-05-10T04:34:25.406Z,82.95
2019-05-10T04:36:52.152Z,83.17
2019-05-10T04:39:18.893Z,83.15
2019-05-10T04:41:46.017Z,83.03
2019-05-10T04:44:12.770Z,82.98
2019-05-10T04:46:39.591Z,82.36
2019-05-10T04:49:06.390Z,81.54
2019-05-10T04:51:33.621Z,81.28
2019-05-10T04:54:00.782Z,81.05
2019-05-10T04:56:28.626Z,81.55
2019-05-10T04:58:55.396Z,81.95
2019-05-10T05:01:22.277Z,82.43
2019-05-10T05:03:49.530Z,82.00
2019-05-10T05:06:16.409Z,82.07
2019-05-10T05:08:43.519Z,81.92
2019-05-10T05:11:10.288Z,81.93
2019-05-10T05:13:36.998Z,81.88
2019-05-10T05:16:04.230Z,81.67
2019-05-10T05:18:31.040Z,81.47
2019-05-10T05:20:57.939Z,81.91
2019-05-10T05:23:24.727Z,82.03
2019-05-10T05:25:51.639Z,82.19
2019-05-10T05:28:23.042Z,82.42
2019-05-10T05:30:47.100Z,82.29
2019-05-10T05:33:13.840Z,81.87
2019-05-10T05:35:41.023Z,81.44
2019-05-10T05:38:07.818Z,81.33
2019-05-10T05:40:34.774Z,81.19
2019-05-10T05:43:02.764Z,81.04
2019-05-10T05:45:33.964Z,80.83
2019-05-10T05:47:59.060Z,80.75
2019-05-10T05:50:25.823Z,80.70
2019-05-10T05:52:52.943Z,80.31
2019-05-10T05:55:22.985Z,79.93
2019-05-10T05:57:48.577Z,79.54
2019-05-10T06:00:15.728Z,79.07
2019-05-10T06:02:44.804Z,78.81
2019-05-10T06:05:11.348Z,78.70
2019-05-10T06:07:39.509Z,78.60
2019-05-10T06:10:10.256Z,78.56
2019-05-10T06:12:37.472Z,78.32
2019-05-10T06:15:06.235Z,77.78
2019-05-10T06:17:33.310Z,77.10
2019-05-10T06:20:00.819Z,76.39
2019-05-10T06:22:29.446Z,76.01
2019-05-10T06:24:56.213Z,75.41
2019-05-10T06:27:22.990Z,74.10
2019-05-10T06:29:50.715Z,73.03
2019-05-10T06:32:17.477Z,72.55
2019-05-10T06:34:44.219Z,72.57
2019-05-10T06:37:11.108Z,72.76
2019-05-10T06:39:37.995Z,72.76
2019-05-10T06:42:05.200Z,71.33
2019-05-10T06:44:33.156Z,71.73
2019-05-10T06:47:02.293Z,70.65
2019-05-10T06:49:28.903Z,69.71
2019-05-10T06:51:55.813Z,69.46
2019-05-10T06:54:22.977Z,70.23
2019-05-10T06:56:49.748Z,69.96
2019-05-10T06:59:19.448Z,69.59
2019-05-10T07:01:51.452Z,69.04
2019-05-10T07:04:14.189Z,69.25
2019-05-10T07:06:41.279Z,69.14
2019-05-10T07:09:08.254Z,69.10
2019-05-10T07:11:35.430Z,68.24
2019-05-10T07:14:02.480Z,68.07
2019-05-10T07:16:29.601Z,68.08
2019-05-10T07:19:00.487Z,66.26
2019-05-10T07:21:27.276Z,67.39
2019-05-10T07:23:54.605Z,67.17
2019-05-10T07:26:24.606Z,66.70
2019-05-10T07:28:51.799Z,66.25
2019-05-10T07:31:23.517Z,65.97
2019-05-10T07:33:48.533Z,65.75
2019-05-10T07:36:20.504Z,65.60
2019-05-10T07:38:44.637Z,65.28
2019-05-10T07:41:11.518Z,63.93
2019-05-10T07:43:38.367Z,63.14
2019-05-10T07:46:07.027Z,62.78
2019-05-10T07:48:34.298Z,62.79
2019-05-10T07:51:01.130Z,62.23
2019-05-10T07:53:28.367Z,62.29
2019-05-10T07:56:00.097Z,62.36
2019-05-10T07:58:24.540Z,62.23
2019-05-10T08:00:51.780Z,61.20
2019-05-10T08:03:23.636Z,60.53
2019-05-10T08:05:55.501Z,59.76
2019-05-10T08:08:19.162Z,58.35
2019-05-10T08:10:48.686Z,58.24
2019-05-10T08:13:20.032Z,58.62
2019-05-10T08:15:44.098Z,58.49
2019-05-10T08:18:15.382Z,58.43
2019-05-10T08:20:49.181Z,53.78
2019-05-10T08:23:09.978Z,57.27
2019-05-10T08:25:43.847Z,57.47
2019-05-10T08:28:05.927Z,56.16
2019-05-10T08:30:42.833Z,57.10
2019-05-10T08:33:10.965Z,57.40
2019-05-10T08:35:40.106Z,56.33
2019-05-10T08:38:08.019Z,55.41
2019-05-10T08:40:37.874Z,55.20
2019-05-10T08:43:08.473Z,54.78
2019-05-10T08:45:33.277Z,54.91
2019-05-10T08:48:05.063Z,55.33
2019-05-10T08:50:48.445Z,54.90
2019-05-10T08:53:04.409Z,54.89
2019-05-10T08:55:27.456Z,54.39
2019-05-10T09:00:53.408Z,54.61
2019-05-10T09:03:17.162Z,54.35
2019-05-10T09:05:39.982Z,54.57
2019-05-10T09:08:13.694Z,52.56
2019-05-10T09:10:36.185Z,54.30
2019-05-10T09:13:03.673Z,54.33
2019-05-10T09:15:32.895Z,54.44
2019-05-10T09:18:04.423Z,53.92
2019-05-10T09:20:28.326Z,54.74
2019-05-10T09:22:55.215Z,54.41
2019-05-10T09:25:28.769Z,54.33
2019-05-10T09:27:53.071Z,54.36
2019-05-10T09:30:35.514Z,54.71
2019-05-10T09:33:08.756Z,54.66
2019-05-10T09:35:32.995Z,54.44
2019-05-10T09:38:02.053Z,54.20
2019-05-10T09:40:29.263Z,54.49
2019-05-10T09:42:59.346Z,53.82
2019-05-10T09:45:25.014Z,53.50
2019-05-10T09:47:52.993Z,53.52
2019-05-10T09:50:22.770Z,53.78
2019-05-10T09:52:49.292Z,54.44
2019-05-10T09:55:17.534Z,54.41
2019-05-10T09:57:44.855Z,54.65
2019-05-10T10:00:12.857Z,52.54
2019-05-10T10:02:40.543Z,54.32
2019-05-10T10:05:08.308Z,54.43
2019-05-10T10:07:37.230Z,54.21
2019-05-10T10:10:12.537Z,54.24
2019-05-10T10:12:37.304Z,53.39
2019-05-10T10:15:04.764Z,51.81
2019-05-10T10:17:38.674Z,53.68
2019-05-10T10:20:00.133Z,53.55
2019-05-10T10:22:27.822Z,53.53
2019-05-10T10:24:58.391Z,53.66
2019-05-10T10:27:26.077Z,53.78
2019-05-10T10:29:52.675Z,54.75
2019-05-10T10:32:24.494Z,56.04
2019-05-10T10:34:54.041Z,56.92
2019-05-10T10:37:20.655Z,57.46
2019-05-10T10:39:47.785Z,58.12
2019-05-10T10:42:15.080Z,57.77
2019-05-10T10:44:42.037Z,58.23
2019-05-10T10:47:09.502Z,58.40
2019-05-10T10:49:37.842Z,58.11
2019-05-10T10:52:11.439Z,57.83
2019-05-10T10:54:37.467Z,58.28
2019-05-10T10:57:03.898Z,58.56
2019-05-10T10:59:30.779Z,58.61
2019-05-10T11:02:28.008Z,58.77
2019-05-10T11:04:26.568Z,58.81
2019-05-10T11:07:09.223Z,58.96
2019-05-10T11:09:22.725Z,58.87
2019-05-10T11:11:51.526Z,59.58
2019-05-10T11:14:20.565Z,60.70
2019-05-10T11:16:52.993Z,61.63
2019-05-10T11:19:15.983Z,62.69
2019-05-10T11:21:42.870Z,63.34
2019-05-10T11:24:18.005Z,63.44
2019-05-10T11:26:40.694Z,63.76
2019-05-10T11:29:08.418Z,63.98
2019-05-10T11:31:35.506Z,63.88
2019-05-10T11:34:05.953Z,64.56
2019-05-10T11:36:32.286Z,64.25
2019-05-10T11:39:01.643Z,64.21
2019-05-10T11:41:31.434Z,64.28
2019-05-10T11:44:05.236Z,64.04
2019-05-10T11:46:31.026Z,63.62
2019-05-10T11:48:58.367Z,63.46
2019-05-10T11:51:25.836Z,63.00
2019-05-10T11:56:27.334Z,62.11
2019-05-10T11:58:55.397Z,61.45
2019-05-10T11:59:03.715Z,62.48
2019-05-10T12:01:22.133Z,61.20
2019-05-10T12:03:48.654Z,60.74
2019-05-10T12:06:15.531Z,60.23
2019-05-10T12:08:42.330Z,59.17
2019-05-10T12:11:25.427Z,58.48
2019-05-10T12:13:38.772Z,57.37
2019-05-10T12:16:05.521Z,56.21
2019-05-10T12:18:36.163Z,56.15
2019-05-10T12:23:31.788Z,53.67
2019-05-10T12:26:59.181Z,54.20
2019-05-10T12:27:13.813Z,53.32
2019-05-10T12:28:32.151Z,52.87
2019-05-10T12:30:57.527Z,53.02
2019-05-10T12:33:27.728Z,52.55
2019-05-10T12:35:55.424Z,52.66
2019-05-10T12:38:28.778Z,52.08
2019-05-10T12:40:51.538Z,52.71
2019-05-10T12:43:20.870Z,51.80
2019-05-10T12:45:48.691Z,52.89
2019-05-10T12:48:15.722Z,53.34
2019-05-10T12:50:44.224Z,53.75
2019-05-10T12:53:15.766Z,56.10
2019-05-10T12:55:40.270Z,58.79
2019-05-10T12:58:07.401Z,61.11
2019-05-10T13:00:34.250Z,62.08
2019-05-10T13:03:12.091Z,62.93
2019-05-10T13:05:33.971Z,62.13
2019-05-10T13:08:00.393Z,62.73
2019-05-10T13:10:28.497Z,62.54
2019-05-10T13:12:56.694Z,62.30
2019-05-10T13:15:24.780Z,62.04
2019-05-10T13:17:53.260Z,61.22
2019-05-10T13:20:21.010Z,61.14
2019-05-10T13:22:48.217Z,58.68
2019-05-10T13:25:15.794Z,58.81
2019-05-10T13:27:42.988Z,57.20
2019-05-10T13:30:10.117Z,54.84
2019-05-10T13:32:37.601Z,53.49
2019-05-10T13:35:05.684Z,51.89
2019-05-10T13:37:35.656Z,50.08
2019-05-10T13:40:07.596Z,48.95
2019-05-10T13:42:36.563Z,47.78
2019-05-10T13:45:04.668Z,47.14
2019-05-10T13:47:32.400Z,46.85
2019-05-10T13:49:59.966Z,45.77
2019-05-10T13:52:29.959Z,45.06
2019-05-10T13:54:57.460Z,44.30
2019-05-10T13:57:24.617Z,43.29
2019-05-10T13:59:55.246Z,43.58
2019-05-10T14:02:22.813Z,44.35
2019-05-10T14:04:49.228Z,44.35
2019-05-10T14:07:17.896Z,43.64
2019-05-10T14:09:45.085Z,43.05
2019-05-10T14:12:16.155Z,42.69
2019-05-10T14:14:40.518Z,41.24
2019-05-10T14:17:07.419Z,42.84
2019-05-10T14:19:36.197Z,41.39
2019-05-10T14:22:03.412Z,42.61
2019-05-10T14:24:30.242Z,42.81
2019-05-10T14:26:59.330Z,42.83
2019-05-10T14:29:34.767Z,42.95
2019-05-10T14:31:59.087Z,42.86
2019-05-10T14:34:25.883Z,43.04
2019-05-10T14:36:52.651Z,43.31
2019-05-10T14:39:23.234Z,43.21
2019-05-10T14:41:51.547Z,43.71
2019-05-10T14:44:19.585Z,43.63
2019-05-10T14:46:46.406Z,43.68
2019-05-10T14:49:13.583Z,43.86
2019-05-10T14:51:57.804Z,44.12
2019-05-10T14:54:09.669Z,44.09
2019-05-10T14:56:36.656Z,43.51
2019-05-10T14:59:04.029Z,43.11
2019-05-10T15:01:30.823Z,42.76
2019-05-10T15:03:57.616Z,43.08
2019-05-10T15:06:24.642Z,42.28
2019-05-10T15:08:51.446Z,42.84
2019-05-10T15:11:18.329Z,42.22
2019-05-10T15:13:54.351Z,41.92
2019-05-10T15:16:27.407Z,42.36
2019-05-10T15:18:53.756Z,42.52
2019-05-10T15:21:21.061Z,42.60
2019-05-10T15:23:47.983Z,43.44
2019-05-10T15:26:14.800Z,43.39
2019-05-10T15:28:42.654Z,43.37
2019-05-10T15:31:11.370Z,44.08
2019-05-10T15:33:38.657Z,43.88
2019-05-10T15:36:10.793Z,43.16
2019-05-10T15:38:40.495Z,43.61
2019-05-10T15:41:06.551Z,44.25
2019-05-10T15:43:33.523Z,45.04
2019-05-10T15:46:00.397Z,45.55
2019-05-10T15:48:27.498Z,45.60
2019-05-10T15:50:54.498Z,46.22
2019-05-10T15:53:25.728Z,46.56
2019-05-10T15:55:51.133Z,46.45
2019-05-10T15:58:18.229Z,46.42
2019-05-10T16:00:45.474Z,45.97
2019-05-10T16:03:21.819Z,45.99
2019-05-10T16:06:00.280Z,46.29
2019-05-10T16:08:18.215Z,46.26
2019-05-10T16:10:47.389Z,46.44
2019-05-10T16:13:22.842Z,46.59
2019-05-10T16:15:46.438Z,46.76
2019-05-10T16:18:15.280Z,46.98
2019-05-10T16:20:42.081Z,47.17
2019-05-10T16:23:11.028Z,47.31
2019-05-10T16:25:47.562Z,47.54
2019-05-10T16:28:15.491Z,47.51
2019-05-10T16:30:41.474Z,47.61
2019-05-10T16:33:09.806Z,47.50
2019-05-10T16:35:39.058Z,47.18
2019-05-10T16:38:05.807Z,47.07
2019-05-10T16:40:32.784Z,46.92
2019-05-10T16:42:59.655Z,47.06
2019-05-10T16:45:26.378Z,47.03
2019-05-10T16:47:53.263Z,47.07
2019-05-10T16:50:20.042Z,47.29
2019-05-10T16:52:47.176Z,47.37
2019-05-10T16:55:14.034Z,47.45
2019-05-10T16:57:40.800Z,47.49
2019-05-10T17:00:10.691Z,47.71
2019-05-10T17:02:42.080Z,47.82
2019-05-10T17:05:09.612Z,48.00
2019-05-10T17:07:36.274Z,48.02
2019-05-10T17:10:08.511Z,47.79
2019-05-10T17:12:35.461Z,47.86
2019-05-10T17:15:04.791Z,47.79
2019-05-10T17:17:37.310Z,47.88
2019-05-10T17:20:01.182Z,47.93
2019-05-10T17:22:28.165Z,47.88
2019-05-10T17:24:57.083Z,47.92
2019-05-10T17:27:24.238Z,47.85
2019-05-10T17:29:51.541Z,47.92
2019-05-10T17:32:24.255Z,48.04
2019-05-10T17:34:47.005Z,48.17
2019-05-10T17:37:14.152Z,48.39
2019-05-10T17:39:41.022Z,48.51
2019-05-10T17:42:08.074Z,48.52
2019-05-10T17:44:34.902Z,48.70
2019-05-10T17:47:01.716Z,48.89
2019-05-10T17:49:28.573Z,49.16
2019-05-10T17:51:55.345Z,49.43
2019-05-10T17:54:22.178Z,49.57
2019-05-10T17:56:48.924Z,49.59
2019-05-10T17:59:15.877Z,49.72
2019-05-10T18:01:42.944Z,49.60
2019-05-10T18:04:09.828Z,49.59
2019-05-10T18:06:36.580Z,49.68
2019-05-10T18:09:05.691Z,49.71
2019-05-10T18:11:36.982Z,49.79
2019-05-10T18:14:03.116Z,49.87
2019-05-10T18:16:30.183Z,49.90
2019-05-10T18:18:57.041Z,49.97
2019-05-10T18:21:24.600Z,50.14
2019-05-10T18:23:52.581Z,50.32
2019-05-10T18:26:20.278Z,50.64
2019-05-10T18:28:47.179Z,51.08
2019-05-10T18:31:14.843Z,51.51
2019-05-10T18:33:44.821Z,51.93
2019-05-10T18:36:11.131Z,52.54
2019-05-10T18:38:39.016Z,53.18
2019-05-10T18:41:10.016Z,53.65
2019-05-10T18:43:40.508Z,53.97
2019-05-10T18:46:04.361Z,54.55
2019-05-10T18:48:31.445Z,55.42
2019-05-10T18:50:58.327Z,55.72
2019-05-10T18:53:25.488Z,56.28
2019-05-10T18:55:52.220Z,56.86
2019-05-10T18:58:23.314Z,57.08
2019-05-10T19:00:56.016Z,57.84
2019-05-10T19:03:20.528Z,58.40
2019-05-10T19:05:50.726Z,59.59
2019-05-10T19:08:17.585Z,59.41
2019-05-10T19:10:44.762Z,60.26
2019-05-10T19:13:12.014Z,61.01
2019-05-10T19:15:39.526Z,61.13
2019-05-10T19:18:06.975Z,61.59
2019-05-10T19:20:34.095Z,62.05
2019-05-10T19:23:01.159Z,62.40
2019-05-10T19:25:28.180Z,62.93
2019-05-10T19:27:55.377Z,63.44
2019-05-10T19:30:22.951Z,63.53
2019-05-10T19:32:50.920Z,63.68
2019-05-10T19:35:18.367Z,63.25
2019-05-10T19:37:45.726Z,63.37
2019-05-10T19:40:13.758Z,63.85
2019-05-10T19:42:43.117Z,63.37
2019-05-10T19:45:13.023Z,63.62
2019-05-10T19:47:39.516Z,63.98
2019-05-10T19:50:07.393Z,63.83
2019-05-10T19:52:58.472Z,63.74
2019-05-10T19:55:22.823Z,64.16
2019-05-10T19:57:54.774Z,64.16
2019-05-10T20:00:20.070Z,64.17
2019-05-10T20:02:46.871Z,63.75
2019-05-10T20:05:14.055Z,63.79
2019-05-10T20:07:45.966Z,64.61
2019-05-10T20:10:11.656Z,65.03
2019-05-10T20:12:38.984Z,65.02
2019-05-10T20:15:06.327Z,65.32
2019-05-10T20:17:33.398Z,65.54
2019-05-10T20:20:01.114Z,66.12
2019-05-10T20:22:27.866Z,65.57
2019-05-10T20:24:54.762Z,66.12
2019-05-10T20:27:22.523Z,66.54
2019-05-10T20:29:49.641Z,66.83
2019-05-10T20:32:16.798Z,66.96
2019-05-10T20:34:43.683Z,66.60
2019-05-10T20:37:11.281Z,66.75
2019-05-10T20:39:38.095Z,66.67
2019-05-10T20:42:05.591Z,66.54
2019-05-10T20:44:32.342Z,66.26
2019-05-10T20:47:01.114Z,66.94
2019-05-10T20:49:28.004Z,67.48
2019-05-10T20:51:54.761Z,67.63
2019-05-10T20:54:21.748Z,67.46
2019-05-10T20:56:48.556Z,67.80
2019-05-10T20:59:15.731Z,68.05
2019-05-10T21:01:42.851Z,68.23
2019-05-10T21:04:09.740Z,68.50
2019-05-10T21:06:36.505Z,68.26
2019-05-10T21:09:05.449Z,67.97
2019-05-10T21:11:32.418Z,68.62
2019-05-10T21:13:59.316Z,69.04
2019-05-10T21:16:26.170Z,68.93
2019-05-10T21:18:53.325Z,68.88
2019-05-10T21:21:21.332Z,68.74
2019-05-10T21:23:48.472Z,68.74
2019-05-10T21:26:15.318Z,68.40
2019-05-10T21:28:42.102Z,68.31
2019-05-10T21:31:09.043Z,68.12
2019-05-10T21:33:36.650Z,68.34
2019-05-10T21:36:03.564Z,68.15
2019-05-10T21:38:33.403Z,68.55
2019-05-10T21:40:59.511Z,68.57
2019-05-10T21:43:26.771Z,68.58
2019-05-10T21:45:54.019Z,68.79
2019-05-10T21:48:20.866Z,68.77
2019-05-10T21:50:48.243Z,69.11
2019-05-10T21:53:18.155Z,70.42
2019-05-10T21:55:45.100Z,71.56
2019-05-10T21:58:12.255Z,71.41
2019-05-10T22:00:41.632Z,71.29
2019-05-10T22:03:08.760Z,70.89
2019-05-10T22:05:37.843Z,71.06
2019-05-10T22:08:05.035Z,71.90
2019-05-10T22:10:32.049Z,72.03
2019-05-10T22:12:58.855Z,71.92
2019-05-10T22:15:26.124Z,72.20
2019-05-10T22:17:53.337Z,73.37
2019-05-10T22:20:20.329Z,73.89
2019-05-10T22:22:47.675Z,74.67
2019-05-10T22:25:14.511Z,75.42
2019-05-10T22:27:41.339Z,75.60
2019-05-10T22:30:12.516Z,76.23
2019-05-10T22:32:40.162Z,76.38
2019-05-10T22:35:07.269Z,76.52
2019-05-10T22:37:34.169Z,76.75
2019-05-10T22:40:01.038Z,77.51
2019-05-10T22:42:27.841Z,77.63
2019-05-10T22:44:56.743Z,77.83
2019-05-10T22:47:25.488Z,78.02
2019-05-10T22:49:52.705Z,77.90
2019-05-10T22:52:20.476Z,78.13
2019-05-10T22:54:47.652Z,78.87
2019-05-10T22:57:16.824Z,79.13
2019-05-10T22:59:43.611Z,79.20
2019-05-10T23:02:12.177Z,79.47
2019-05-10T23:04:39.627Z,79.78
2019-05-10T23:07:06.563Z,79.66
2019-05-10T23:09:33.461Z,78.55
2019-05-10T23:12:00.269Z,79.42
2019-05-10T23:14:27.055Z,79.62
2019-05-10T23:16:53.900Z,79.71
2019-05-10T23:19:20.695Z,79.88
2019-05-10T23:21:47.495Z,79.75
2019-05-10T23:24:16.312Z,79.62
2019-05-10T23:26:44.141Z,78.99
2019-05-10T23:29:10.944Z,78.97
2019-05-10T23:31:38.144Z,79.13
2019-05-10T23:34:04.994Z,79.16
2019-05-10T23:36:31.916Z,78.85
2019-05-10T23:38:58.752Z,78.62
2019-05-10T23:41:25.569Z,78.96
2019-05-10T23:43:53.018Z,79.43
2019-05-10T23:46:19.866Z,79.03
2019-05-10T23:48:47.047Z,79.46
2019-05-10T23:51:13.828Z,79.44
2019-05-10T23:53:41.104Z,80.22
2019-05-10T23:56:08.293Z,80.77
2019-05-10T23:58:35.208Z,80.90
